»·PEaware :: N12RC KPHX-KPRC

N12RC :: KPHX-KPRC

FLIGHT INFORMATION

Flight Status: Arrived
Operator: Privately registered:
United States
More flights under this callsign
Pilot: Bruce F. (35328)
Aircraft: BEECH AIRCRAFT BONANZA
(BE36)
More flights by this aircraft type
Origin: KPHX Phoenix Sky Harbor Intl
United States
Destination: KPRC Love
United States
More flights between these airports :: More routes between these airports
Route: PXR V105 DRK
File this flight plan on PilotEdge
Remarks:
Altitude:
(Current/Filed)
10,000ft
Speed:
(Current/Filed)
190kts
Departed: 22-Jul-23 10:21 AM
Arrived: 22-Jul-23 11:09 AM
Distance/Time
Traveled:
76nm/0:48
Distance/Time
To Go:
Arrived

Flight Plot

Page will automatically refresh every two minutes.


Map Options




Map Legend


Flown Route
Filed Route
Departure Airport
Arrival Airport
Navaid (VOR, NDB)
Fix

Horizontal Profiles

Position Reports

Time Latitude Longitude Heading Altitude Ground
Speed
22-Jul-23 10:05 33.426707 -112.023971 89 1111ft 0kts
22-Jul-23 10:06 33.426707 -112.023971 89 1111ft 0kts
22-Jul-23 10:07 33.426707 -112.023971 89 1111ft 0kts
22-Jul-23 10:08 33.426707 -112.023971 89 1111ft 0kts
22-Jul-23 10:09 33.426707 -112.023971 89 1111ft 0kts
22-Jul-23 10:10 33.426707 -112.023971 89 1111ft 0kts
22-Jul-23 10:11 33.426707 -112.023971 89 1111ft 0kts
22-Jul-23 10:12 33.426707 -112.023971 89 1111ft 0kts
22-Jul-23 10:13 33.426707 -112.023971 89 1111ft 0kts
22-Jul-23 10:14 33.426707 -112.023971 89 1111ft 0kts
22-Jul-23 10:15 33.427759 -112.025116 272 1111ft 19kts
22-Jul-23 10:16 33.427955 -112.026869 343 1109ft 0kts
22-Jul-23 10:17 33.427955 -112.026869 343 1109ft 0kts
22-Jul-23 10:18 33.427955 -112.026869 343 1109ft 0kts
22-Jul-23 10:19 33.428815 -112.025657 85 1111ft 32kts
22-Jul-23 10:20 33.429949 -111.994618 62 1970ft 110kts
22-Jul-23 10:21 33.445310 -111.960423 60 3496ft 122kts
22-Jul-23 10:22 33.462219 -111.922968 60 4959ft 131kts
22-Jul-23 10:23 33.493866 -111.926902 320 6044ft 152kts
22-Jul-23 10:24 33.530406 -111.962423 320 6473ft 186kts
22-Jul-23 10:25 33.571144 -112.000851 320 6459ft 183kts
22-Jul-23 10:26 33.608251 -112.036759 320 7270ft 147kts
22-Jul-23 10:27 33.638315 -112.066932 320 8735ft 147kts
22-Jul-23 10:28 33.669748 -112.099602 320 10101ft 150kts
22-Jul-23 10:29 33.703271 -112.135228 321 10820ft 183kts
22-Jul-23 10:30 33.749720 -112.163288 335 10864ft 190kts
22-Jul-23 10:31 33.797431 -112.192502 334 10837ft 192kts
22-Jul-23 10:32 33.845041 -112.221731 334 10832ft 191kts
22-Jul-23 10:33 33.892540 -112.250855 334 10780ft 191kts
22-Jul-23 10:34 33.939957 -112.279928 334 10806ft 190kts
22-Jul-23 10:35 33.987878 -112.309414 334 10768ft 195kts
22-Jul-23 10:36 34.036160 -112.339245 334 10770ft 195kts
22-Jul-23 10:37 34.083758 -112.368668 334 10775ft 190kts
22-Jul-23 10:38 34.131108 -112.397922 334 10781ft 191kts
22-Jul-23 10:39 34.178504 -112.427392 334 10809ft 192kts
22-Jul-23 10:40 34.226214 -112.457089 334 10799ft 193kts
22-Jul-23 10:41 34.275000 -112.487382 334 10752ft 196kts
22-Jul-23 10:42 34.326997 -112.496043 3 10734ft 191kts
22-Jul-23 10:43 34.380347 -112.493577 3 10714ft 191kts
22-Jul-23 10:44 34.433511 -112.491444 3 10701ft 190kts
22-Jul-23 10:45 34.486868 -112.489195 3 10708ft 191kts
22-Jul-23 10:46 34.540074 -112.486980 2 10721ft 190kts
22-Jul-23 10:47 34.592847 -112.484797 3 10726ft 190kts
22-Jul-23 10:48 34.646125 -112.482584 3 10736ft 191kts
22-Jul-23 10:49 34.698948 -112.480371 3 10727ft 177kts
22-Jul-23 10:50 34.726795 -112.437058 58 10125ft 183kts
22-Jul-23 10:51 34.754288 -112.385913 56 9639ft 169kts
22-Jul-23 10:52 34.779053 -112.340661 55 9638ft 155kts
22-Jul-23 10:53 34.802730 -112.297411 55 9640ft 152kts
22-Jul-23 10:54 34.826083 -112.254755 56 9645ft 151kts
22-Jul-23 10:55 34.849448 -112.211958 54 9635ft 151kts
22-Jul-23 10:56 34.882084 -112.180279 36 9639ft 151kts
22-Jul-23 10:57 34.915308 -112.179585 284 9635ft 155kts
22-Jul-23 10:58 34.884179 -112.196430 159 9641ft 155kts
22-Jul-23 10:59 34.846185 -112.216200 222 9623ft 159kts
22-Jul-23 11:00 34.815820 -112.248509 222 8970ft 118kts
22-Jul-23 11:01 34.793267 -112.272516 223 8344ft 103kts
22-Jul-23 11:02 34.771274 -112.295893 223 7803ft 109kts
22-Jul-23 11:03 34.748011 -112.320577 222 7195ft 111kts
22-Jul-23 11:04 34.724782 -112.345183 223 6587ft 108kts
22-Jul-23 11:05 34.702001 -112.369220 220 5922ft 110kts
22-Jul-23 11:06 34.680002 -112.392278 224 5445ft 102kts
22-Jul-23 11:07 34.658684 -112.415041 222 4964ft 89kts
22-Jul-23 11:08 34.651066 -112.422367 140 5007ft 10kts
22-Jul-23 11:09 34.649608 -112.422938 214 5012ft 10kts
22-Jul-23 11:10 34.647124 -112.423415 193 5021ft 10kts
22-Jul-23 11:11 34.646718 -112.423322 220 5023ft 0kts
22-Jul-23 11:12 34.646718 -112.423322 220 5023ft 0kts
22-Jul-23 11:13 34.646718 -112.423322 220 5023ft 0kts
22-Jul-23 11:14 34.646718 -112.423322 220 5023ft 0kts
22-Jul-23 11:15 34.646718 -112.423322 220 5023ft 0kts
22-Jul-23 11:16 34.646718 -112.423322 220 5023ft 0kts
22-Jul-23 11:17 34.646718 -112.423322 220 5023ft 0kts
22-Jul-23 11:18 34.646718 -112.423322 220 5023ft 0kts
22-Jul-23 11:19 34.646718 -112.423322 220 5023ft 0kts
22-Jul-23 11:20 34.646718 -112.423322 220 5023ft 0kts
22-Jul-23 11:21 34.646718 -112.423322 220 5023ft 0kts
22-Jul-23 11:22 34.646718 -112.423322 220 5023ft 0kts
22-Jul-23 11:23 34.646718 -112.423322 220 5023ft 0kts

Navigation Log

Ident Type
Flight plan parsing failed, navigation log unavailable